sensor_id;sensor_type;location;lat;lon;timestamp;temperature;humidity
3699;DHT22;1865;50.918;7.092;2022-10-03T00:08:18;13.70;59.00
3699;DHT22;1865;50.918;7.092;2022-10-03T00:16:50;13.60;58.50
3699;DHT22;1865;50.918;7.092;2022-10-03T00:22:21;13.40;59.40
3699;DHT22;1865;50.918;7.092;2022-10-03T00:36:20;13.40;58.50
3699;DHT22;1865;50.918;7.092;2022-10-03T00:39:13;13.30;58.80
3699;DHT22;1865;50.918;7.092;2022-10-03T00:55:54;13.00;58.30
3699;DHT22;1865;50.918;7.092;2022-10-03T00:58:56;12.90;58.80
3699;DHT22;1865;50.918;7.092;2022-10-03T01:07:03;12.90;58.00
3699;DHT22;1865;50.918;7.092;2022-10-03T01:12:47;12.80;59.10
3699;DHT22;1865;50.918;7.092;2022-10-03T01:18:16;12.60;58.40
3699;DHT22;1865;50.918;7.092;2022-10-03T01:20:53;12.70;59.70
3699;DHT22;1865;50.918;7.092;2022-10-03T01:23:51;12.60;58.70
3699;DHT22;1865;50.918;7.092;2022-10-03T01:26:40;12.60;58.30
3699;DHT22;1865;50.918;7.092;2022-10-03T01:29:17;12.60;58.60
3699;DHT22;1865;50.918;7.092;2022-10-03T01:32:16;12.60;58.80
3699;DHT22;1865;50.918;7.092;2022-10-03T01:34:46;12.50;58.70
3699;DHT22;1865;50.918;7.092;2022-10-03T01:37:39;12.60;58.50
3699;DHT22;1865;50.918;7.092;2022-10-03T01:40:24;12.60;58.40
3699;DHT22;1865;50.918;7.092;2022-10-03T01:43:02;12.50;58.20
3699;DHT22;1865;50.918;7.092;2022-10-03T01:48:49;12.40;58.80
3699;DHT22;1865;50.918;7.092;2022-10-03T01:57:01;12.30;59.20
3699;DHT22;1865;50.918;7.092;2022-10-03T02:05:27;12.30;58.70
3699;DHT22;1865;50.918;7.092;2022-10-03T02:11:06;12.20;58.60
3699;DHT22;1865;50.918;7.092;2022-10-03T02:13:45;12.10;59.50
3699;DHT22;1865;50.918;7.092;2022-10-03T02:16:35;12.20;59.00
3699;DHT22;1865;50.918;7.092;2022-10-03T02:21:32;12.20;58.80
3699;DHT22;1865;50.918;7.092;2022-10-03T02:27:36;12.20;58.70
3699;DHT22;1865;50.918;7.092;2022-10-03T02:30:15;12.30;59.00
3699;DHT22;1865;50.918;7.092;2022-10-03T02:33:06;12.20;58.70
3699;DHT22;1865;50.918;7.092;2022-10-03T02:36:14;12.10;58.60
3699;DHT22;1865;50.918;7.092;2022-10-03T02:39:11;12.10;59.40
3699;DHT22;1865;50.918;7.092;2022-10-03T02:42:15;12.10;59.20
3699;DHT22;1865;50.918;7.092;2022-10-03T02:48:05;12.20;58.40
3699;DHT22;1865;50.918;7.092;2022-10-03T02:50:48;12.20;58.70
3699;DHT22;1865;50.918;7.092;2022-10-03T02:59:25;12.10;58.90
3699;DHT22;1865;50.918;7.092;2022-10-03T03:08:25;12.10;58.70
3699;DHT22;1865;50.918;7.092;2022-10-03T03:19:35;11.90;59.20
3699;DHT22;1865;50.918;7.092;2022-10-03T03:22:25;12.00;59.00
3699;DHT22;1865;50.918;7.092;2022-10-03T03:30:42;11.90;58.80
3699;DHT22;1865;50.918;7.092;2022-10-03T03:36:33;11.70;59.40
3699;DHT22;1865;50.918;7.092;2022-10-03T03:47:11;12.00;58.40
3699;DHT22;1865;50.918;7.092;2022-10-03T04:04:08;12.10;58.70
3699;DHT22;1865;50.918;7.092;2022-10-03T04:12:54;11.90;58.70
3699;DHT22;1865;50.918;7.092;2022-10-03T04:15:49;12.00;58.50
3699;DHT22;1865;50.918;7.092;2022-10-03T04:18:57;11.90;58.50
3699;DHT22;1865;50.918;7.092;2022-10-03T04:21:43;11.90;58.20
3699;DHT22;1865;50.918;7.092;2022-10-03T04:30:12;11.70;58.70
3699;DHT22;1865;50.918;7.092;2022-10-03T04:35:35;11.70;59.10
3699;DHT22;1865;50.918;7.092;2022-10-03T04:46:54;11.90;58.50
3699;DHT22;1865;50.918;7.092;2022-10-03T04:49:44;11.90;58.10
3699;DHT22;1865;50.918;7.092;2022-10-03T04:55:44;11.70;57.90
3699;DHT22;1865;50.918;7.092;2022-10-03T04:58:38;11.80;58.70
3699;DHT22;1865;50.918;7.092;2022-10-03T05:09:49;11.70;58.50
3699;DHT22;1865;50.918;7.092;2022-10-03T05:18:13;11.60;58.60
3699;DHT22;1865;50.918;7.092;2022-10-03T05:21:48;11.60;58.90
3699;DHT22;1865;50.918;7.092;2022-10-03T05:23:59;11.70;58.60
3699;DHT22;1865;50.918;7.092;2022-10-03T05:38:17;11.50;58.40
3699;DHT22;1865;50.918;7.092;2022-10-03T05:44:01;11.50;58.80
3699;DHT22;1865;50.918;7.092;2022-10-03T05:46:57;11.50;58.90
3699;DHT22;1865;50.918;7.092;2022-10-03T05:52:30;11.50;58.90
3699;DHT22;1865;50.918;7.092;2022-10-03T05:55:33;11.50;58.50
3699;DHT22;1865;50.918;7.092;2022-10-03T06:03:55;11.60;59.20
3699;DHT22;1865;50.918;7.092;2022-10-03T06:07:04;11.70;59.10
3699;DHT22;1865;50.918;7.092;2022-10-03T06:15:39;11.90;59.10
3699;DHT22;1865;50.918;7.092;2022-10-03T06:18:32;12.10;59.20
3699;DHT22;1865;50.918;7.092;2022-10-03T06:33:14;12.20;58.60
3699;DHT22;1865;50.918;7.092;2022-10-03T06:55:53;12.30;59.90
3699;DHT22;1865;50.918;7.092;2022-10-03T06:58:54;12.40;59.60
3699;DHT22;1865;50.918;7.092;2022-10-03T07:10:38;12.80;59.60
3699;DHT22;1865;50.918;7.092;2022-10-03T07:30:22;13.60;59.50
3699;DHT22;1865;50.918;7.092;2022-10-03T07:38:57;13.90;59.70
3699;DHT22;1865;50.918;7.092;2022-10-03T07:49:55;14.10;59.90
3699;DHT22;1865;50.918;7.092;2022-10-03T07:52:56;14.10;60.40
3699;DHT22;1865;50.918;7.092;2022-10-03T08:01:16;14.40;60.30
3699;DHT22;1865;50.918;7.092;2022-10-03T08:15:35;14.90;60.10
3699;DHT22;1865;50.918;7.092;2022-10-03T08:20:52;15.30;60.30
3699;DHT22;1865;50.918;7.092;2022-10-03T08:32:07;15.80;59.80
3699;DHT22;1865;50.918;7.092;2022-10-03T08:35:01;15.80;59.40
3699;DHT22;1865;50.918;7.092;2022-10-03T08:49:24;16.20;58.90
3699;DHT22;1865;50.918;7.092;2022-10-03T08:52:15;16.20;58.60
3699;DHT22;1865;50.918;7.092;2022-10-03T09:00:33;16.60;57.80
3699;DHT22;1865;50.918;7.092;2022-10-03T09:12:19;17.00;57.40
3699;DHT22;1865;50.918;7.092;2022-10-03T09:30:15;17.20;56.00
3699;DHT22;1865;50.918;7.092;2022-10-03T09:32:59;17.20;56.30
3699;DHT22;1865;50.918;7.092;2022-10-03T09:35:50;17.40;56.40
3699;DHT22;1865;50.918;7.092;2022-10-03T09:44:12;17.80;55.00
3699;DHT22;1865;50.918;7.092;2022-10-03T10:02:28;17.80;55.30
3699;DHT22;1865;50.918;7.092;2022-10-03T10:11:07;18.10;55.40
3699;DHT22;1865;50.918;7.092;2022-10-03T10:13:43;18.20;54.50
3699;DHT22;1865;50.918;7.092;2022-10-03T10:25:07;18.40;52.90
3699;DHT22;1865;50.918;7.092;2022-10-03T10:34:11;18.40;52.40
3699;DHT22;1865;50.918;7.092;2022-10-03T10:50:56;19.20;50.00
3699;DHT22;1865;50.918;7.092;2022-10-03T11:00:15;19.60;49.80
3699;DHT22;1865;50.918;7.092;2022-10-03T11:06:40;19.70;49.20
3699;DHT22;1865;50.918;7.092;2022-10-03T11:12:49;19.30;48.40
3699;DHT22;1865;50.918;7.092;2022-10-03T11:24:55;19.50;48.80
3699;DHT22;1865;50.918;7.092;2022-10-03T11:28:12;19.70;48.30
3699;DHT22;1865;50.918;7.092;2022-10-03T11:31:13;19.90;48.10
3699;DHT22;1865;50.918;7.092;2022-10-03T11:37:18;20.10;49.30
3699;DHT22;1865;50.918;7.092;2022-10-03T11:40:03;20.20;49.10
3699;DHT22;1865;50.918;7.092;2022-10-03T11:42:45;20.30;50.50
3699;DHT22;1865;50.918;7.092;2022-10-03T11:45:50;20.30;49.30
3699;DHT22;1865;50.918;7.092;2022-10-03T11:48:28;20.30;46.50
3699;DHT22;1865;50.918;7.092;2022-10-03T11:51:13;20.30;46.10
3699;DHT22;1865;50.918;7.092;2022-10-03T11:53:59;20.20;45.80
3699;DHT22;1865;50.918;7.092;2022-10-03T11:56:47;20.20;45.90
3699;DHT22;1865;50.918;7.092;2022-10-03T11:59:45;20.20;46.10
3699;DHT22;1865;50.918;7.092;2022-10-03T12:05:22;20.20;45.20
3699;DHT22;1865;50.918;7.092;2022-10-03T12:08:31;20.20;44.20
3699;DHT22;1865;50.918;7.092;2022-10-03T12:11:23;20.40;44.20
3699;DHT22;1865;50.918;7.092;2022-10-03T12:17:27;21.00;43.00
3699;DHT22;1865;50.918;7.092;2022-10-03T12:19:52;21.10;42.10
3699;DHT22;1865;50.918;7.092;2022-10-03T12:22:28;21.10;42.30
3699;DHT22;1865;50.918;7.092;2022-10-03T12:25:21;21.00;42.20
3699;DHT22;1865;50.918;7.092;2022-10-03T12:27:49;20.80;42.10
3699;DHT22;1865;50.918;7.092;2022-10-03T12:30:20;20.70;43.10
3699;DHT22;1865;50.918;7.092;2022-10-03T12:35:56;20.80;43.80
3699;DHT22;1865;50.918;7.092;2022-10-03T12:41:41;20.60;43.30
3699;DHT22;1865;50.918;7.092;2022-10-03T12:49:49;20.40;44.00
3699;DHT22;1865;50.918;7.092;2022-10-03T12:52:38;20.40;44.30
3699;DHT22;1865;50.918;7.092;2022-10-03T12:55:37;20.50;43.80
3699;DHT22;1865;50.918;7.092;2022-10-03T12:58:24;20.60;42.40
3699;DHT22;1865;50.918;7.092;2022-10-03T13:04:10;20.40;41.70
3699;DHT22;1865;50.918;7.092;2022-10-03T13:06:45;20.50;42.20
3699;DHT22;1865;50.918;7.092;2022-10-03T13:09:28;20.40;40.90
3699;DHT22;1865;50.918;7.092;2022-10-03T13:12:16;20.40;41.40
3699;DHT22;1865;50.918;7.092;2022-10-03T13:21:04;20.50;42.70
3699;DHT22;1865;50.918;7.092;2022-10-03T13:24:01;20.60;42.40
3699;DHT22;1865;50.918;7.092;2022-10-03T13:26:56;20.60;41.70
3699;DHT22;1865;50.918;7.092;2022-10-03T13:29:41;20.50;41.80
3699;DHT22;1865;50.918;7.092;2022-10-03T13:35:03;20.50;42.20
3699;DHT22;1865;50.918;7.092;2022-10-03T13:40:43;20.50;42.80
3699;DHT22;1865;50.918;7.092;2022-10-03T13:43:15;20.60;42.80
3699;DHT22;1865;50.918;7.092;2022-10-03T13:45:46;20.60;43.20
3699;DHT22;1865;50.918;7.092;2022-10-03T13:48:18;20.70;42.60
3699;DHT22;1865;50.918;7.092;2022-10-03T13:51:11;20.70;43.10
3699;DHT22;1865;50.918;7.092;2022-10-03T13:53:58;20.60;43.00
3699;DHT22;1865;50.918;7.092;2022-10-03T13:57:18;20.60;42.20
3699;DHT22;1865;50.918;7.092;2022-10-03T13:59:51;20.60;43.20
3699;DHT22;1865;50.918;7.092;2022-10-03T14:07:59;21.00;41.30
3699;DHT22;1865;50.918;7.092;2022-10-03T14:16:48;21.20;41.70
3699;DHT22;1865;50.918;7.092;2022-10-03T14:19:40;21.20;41.50
3699;DHT22;1865;50.918;7.092;2022-10-03T14:24:55;21.20;41.30
3699;DHT22;1865;50.918;7.092;2022-10-03T14:27:46;21.10;41.70
3699;DHT22;1865;50.918;7.092;2022-10-03T14:30:16;21.00;41.00
3699;DHT22;1865;50.918;7.092;2022-10-03T14:36:03;21.00;42.00
3699;DHT22;1865;50.918;7.092;2022-10-03T14:44:42;20.80;43.10
3699;DHT22;1865;50.918;7.092;2022-10-03T14:47:11;20.60;43.00
3699;DHT22;1865;50.918;7.092;2022-10-03T14:49:39;20.60;43.90
3699;DHT22;1865;50.918;7.092;2022-10-03T14:54:52;20.70;43.40
3699;DHT22;1865;50.918;7.092;2022-10-03T14:57:35;20.70;43.10
3699;DHT22;1865;50.918;7.092;2022-10-03T15:00:03;20.90;43.50
3699;DHT22;1865;50.918;7.092;2022-10-03T15:02:54;21.00;43.90
3699;DHT22;1865;50.918;7.092;2022-10-03T15:05:32;21.00;44.10
3699;DHT22;1865;50.918;7.092;2022-10-03T15:07:58;21.00;43.90
3699;DHT22;1865;50.918;7.092;2022-10-03T15:10:26;20.90;42.30
3699;DHT22;1865;50.918;7.092;2022-10-03T15:13:00;20.90;41.70
3699;DHT22;1865;50.918;7.092;2022-10-03T15:15:33;20.90;42.20
3699;DHT22;1865;50.918;7.092;2022-10-03T15:18:05;20.90;43.50
3699;DHT22;1865;50.918;7.092;2022-10-03T15:20:36;20.90;43.40
3699;DHT22;1865;50.918;7.092;2022-10-03T15:23:06;20.90;43.40
3699;DHT22;1865;50.918;7.092;2022-10-03T15:25:38;20.80;43.60
3699;DHT22;1865;50.918;7.092;2022-10-03T15:28:23;20.80;43.40
3699;DHT22;1865;50.918;7.092;2022-10-03T15:30:52;20.70;43.80
3699;DHT22;1865;50.918;7.092;2022-10-03T15:35:58;20.70;44.90
3699;DHT22;1865;50.918;7.092;2022-10-03T15:38:41;20.70;44.60
3699;DHT22;1865;50.918;7.092;2022-10-03T15:41:14;20.70;44.70
3699;DHT22;1865;50.918;7.092;2022-10-03T15:44:00;20.60;45.60
3699;DHT22;1865;50.918;7.092;2022-10-03T15:46:44;20.60;45.10
3699;DHT22;1865;50.918;7.092;2022-10-03T15:51:44;20.50;45.50
3699;DHT22;1865;50.918;7.092;2022-10-03T15:54:15;20.60;45.90
3699;DHT22;1865;50.918;7.092;2022-10-03T15:56:44;20.60;46.40
3699;DHT22;1865;50.918;7.092;2022-10-03T15:59:28;20.50;46.80
3699;DHT22;1865;50.918;7.092;2022-10-03T16:02:05;20.50;47.20
3699;DHT22;1865;50.918;7.092;2022-10-03T16:04:34;20.40;47.20
3699;DHT22;1865;50.918;7.092;2022-10-03T16:07:10;20.40;47.50
3699;DHT22;1865;50.918;7.092;2022-10-03T16:09:49;20.30;47.80
3699;DHT22;1865;50.918;7.092;2022-10-03T16:12:47;20.30;47.70
3699;DHT22;1865;50.918;7.092;2022-10-03T16:15:20;20.30;47.90
3699;DHT22;1865;50.918;7.092;2022-10-03T16:18:04;20.20;47.60
3699;DHT22;1865;50.918;7.092;2022-10-03T16:20:37;20.30;47.70
3699;DHT22;1865;50.918;7.092;2022-10-03T16:23:16;20.20;48.00
3699;DHT22;1865;50.918;7.092;2022-10-03T16:25:51;20.10;49.90
3699;DHT22;1865;50.918;7.092;2022-10-03T16:28:20;20.00;50.30
3699;DHT22;1865;50.918;7.092;2022-10-03T16:31:17;20.00;50.50
3699;DHT22;1865;50.918;7.092;2022-10-03T16:33:49;19.90;51.00
3699;DHT22;1865;50.918;7.092;2022-10-03T16:36:18;19.90;51.50
3699;DHT22;1865;50.918;7.092;2022-10-03T16:38:51;19.80;52.10
3699;DHT22;1865;50.918;7.092;2022-10-03T16:41:20;19.70;52.40
3699;DHT22;1865;50.918;7.092;2022-10-03T16:43:55;19.60;52.90
3699;DHT22;1865;50.918;7.092;2022-10-03T16:46:22;19.60;53.30
3699;DHT22;1865;50.918;7.092;2022-10-03T16:48:48;19.50;53.70
3699;DHT22;1865;50.918;7.092;2022-10-03T16:51:42;19.40;54.40
3699;DHT22;1865;50.918;7.092;2022-10-03T16:54:18;19.40;54.50
3699;DHT22;1865;50.918;7.092;2022-10-03T16:56:55;19.30;54.80
3699;DHT22;1865;50.918;7.092;2022-10-03T16:59:23;19.20;55.10
3699;DHT22;1865;50.918;7.092;2022-10-03T17:01:54;19.20;55.40
3699;DHT22;1865;50.918;7.092;2022-10-03T17:04:32;19.10;55.60
3699;DHT22;1865;50.918;7.092;2022-10-03T17:07:04;19.00;56.00
3699;DHT22;1865;50.918;7.092;2022-10-03T17:09:38;18.90;56.30
3699;DHT22;1865;50.918;7.092;2022-10-03T17:12:08;18.80;56.60
3699;DHT22;1865;50.918;7.092;2022-10-03T17:14:38;18.70;56.80
3699;DHT22;1865;50.918;7.092;2022-10-03T17:19:49;18.60;56.80
3699;DHT22;1865;50.918;7.092;2022-10-03T17:22:23;18.50;56.70
3699;DHT22;1865;50.918;7.092;2022-10-03T17:25:07;18.50;57.00
3699;DHT22;1865;50.918;7.092;2022-10-03T17:27:51;18.40;57.20
3699;DHT22;1865;50.918;7.092;2022-10-03T17:39:03;18.20;57.10
3699;DHT22;1865;50.918;7.092;2022-10-03T17:41:49;18.10;57.60
3699;DHT22;1865;50.918;7.092;2022-10-03T17:47:27;18.00;57.50
3699;DHT22;1865;50.918;7.092;2022-10-03T17:50:05;17.90;57.80
3699;DHT22;1865;50.918;7.092;2022-10-03T17:52:31;17.90;58.00
3699;DHT22;1865;50.918;7.092;2022-10-03T17:55:00;17.90;57.80
3699;DHT22;1865;50.918;7.092;2022-10-03T17:57:44;17.90;57.60
3699;DHT22;1865;50.918;7.092;2022-10-03T18:00:24;17.70;58.10
3699;DHT22;1865;50.918;7.092;2022-10-03T18:02:59;17.70;58.20
3699;DHT22;1865;50.918;7.092;2022-10-03T18:05:40;17.60;58.20
3699;DHT22;1865;50.918;7.092;2022-10-03T18:08:29;17.50;58.40
3699;DHT22;1865;50.918;7.092;2022-10-03T18:10:57;17.50;58.40
3699;DHT22;1865;50.918;7.092;2022-10-03T18:16:21;17.20;59.10
3699;DHT22;1865;50.918;7.092;2022-10-03T18:19:07;17.20;59.10
3699;DHT22;1865;50.918;7.092;2022-10-03T18:24:21;17.10;59.40
3699;DHT22;1865;50.918;7.092;2022-10-03T18:26:56;17.10;59.10
3699;DHT22;1865;50.918;7.092;2022-10-03T18:29:54;17.00;59.20
3699;DHT22;1865;50.918;7.092;2022-10-03T18:32:23;16.90;59.30
3699;DHT22;1865;50.918;7.092;2022-10-03T18:35:02;16.90;59.60
3699;DHT22;1865;50.918;7.092;2022-10-03T18:39:58;16.80;59.40
3699;DHT22;1865;50.918;7.092;2022-10-03T18:42:25;16.80;59.60
3699;DHT22;1865;50.918;7.092;2022-10-03T18:44:54;16.80;59.30
3699;DHT22;1865;50.918;7.092;2022-10-03T18:47:34;16.70;59.20
3699;DHT22;1865;50.918;7.092;2022-10-03T18:50:08;16.70;59.40
3699;DHT22;1865;50.918;7.092;2022-10-03T18:53:12;16.60;59.30
3699;DHT22;1865;50.918;7.092;2022-10-03T18:55:49;16.60;59.20
3699;DHT22;1865;50.918;7.092;2022-10-03T18:58:25;16.60;59.20
3699;DHT22;1865;50.918;7.092;2022-10-03T19:01:03;16.60;58.90
3699;DHT22;1865;50.918;7.092;2022-10-03T19:03:36;16.50;59.30
3699;DHT22;1865;50.918;7.092;2022-10-03T19:06:20;16.50;59.20
3699;DHT22;1865;50.918;7.092;2022-10-03T19:08:51;16.50;59.10
3699;DHT22;1865;50.918;7.092;2022-10-03T19:19:43;16.30;59.20
3699;DHT22;1865;50.918;7.092;2022-10-03T19:22:16;16.30;59.30
3699;DHT22;1865;50.918;7.092;2022-10-03T19:24:46;16.30;59.50
3699;DHT22;1865;50.918;7.092;2022-10-03T19:27:15;16.30;58.90
3699;DHT22;1865;50.918;7.092;2022-10-03T19:29:53;16.30;59.00
3699;DHT22;1865;50.918;7.092;2022-10-03T19:32:44;16.40;58.60
3699;DHT22;1865;50.918;7.092;2022-10-03T19:35:13;16.30;58.50
3699;DHT22;1865;50.918;7.092;2022-10-03T19:37:47;16.30;58.80
3699;DHT22;1865;50.918;7.092;2022-10-03T19:43:12;16.30;58.90
3699;DHT22;1865;50.918;7.092;2022-10-03T19:45:52;16.30;59.00
3699;DHT22;1865;50.918;7.092;2022-10-03T19:48:24;16.20;58.70
3699;DHT22;1865;50.918;7.092;2022-10-03T19:50:51;16.20;58.40
3699;DHT22;1865;50.918;7.092;2022-10-03T19:53:18;16.20;58.40
3699;DHT22;1865;50.918;7.092;2022-10-03T19:55:45;16.10;58.80
3699;DHT22;1865;50.918;7.092;2022-10-03T19:58:20;16.10;58.90
3699;DHT22;1865;50.918;7.092;2022-10-03T20:00:56;16.10;59.00
3699;DHT22;1865;50.918;7.092;2022-10-03T20:03:58;16.00;58.60
3699;DHT22;1865;50.918;7.092;2022-10-03T20:06:30;15.90;58.90
3699;DHT22;1865;50.918;7.092;2022-10-03T20:09:20;15.80;59.10
3699;DHT22;1865;50.918;7.092;2022-10-03T20:11:55;15.80;59.80
3699;DHT22;1865;50.918;7.092;2022-10-03T20:14:24;15.80;59.30
3699;DHT22;1865;50.918;7.092;2022-10-03T20:17:19;15.80;58.90
3699;DHT22;1865;50.918;7.092;2022-10-03T20:19:53;15.80;59.30
3699;DHT22;1865;50.918;7.092;2022-10-03T20:22:25;15.70;59.20
3699;DHT22;1865;50.918;7.092;2022-10-03T20:24:51;15.80;59.50
3699;DHT22;1865;50.918;7.092;2022-10-03T20:27:35;15.80;59.00
3699;DHT22;1865;50.918;7.092;2022-10-03T20:30:28;15.90;58.70
3699;DHT22;1865;50.918;7.092;2022-10-03T20:32:57;15.80;58.70
3699;DHT22;1865;50.918;7.092;2022-10-03T20:35:27;15.80;59.00
3699;DHT22;1865;50.918;7.092;2022-10-03T20:38:23;15.70;59.00
3699;DHT22;1865;50.918;7.092;2022-10-03T20:43:44;15.60;59.30
3699;DHT22;1865;50.918;7.092;2022-10-03T20:46:19;15.40;58.80
3699;DHT22;1865;50.918;7.092;2022-10-03T20:51:37;15.40;59.60
3699;DHT22;1865;50.918;7.092;2022-10-03T20:54:03;15.30;58.80
3699;DHT22;1865;50.918;7.092;2022-10-03T20:56:34;15.10;59.60
3699;DHT22;1865;50.918;7.092;2022-10-03T20:59:05;15.20;59.50
3699;DHT22;1865;50.918;7.092;2022-10-03T21:01:34;15.10;59.60
3699;DHT22;1865;50.918;7.092;2022-10-03T21:04:27;15.10;59.60
3699;DHT22;1865;50.918;7.092;2022-10-03T21:07:23;15.00;59.60
3699;DHT22;1865;50.918;7.092;2022-10-03T21:10:11;15.00;59.70
3699;DHT22;1865;50.918;7.092;2022-10-03T21:12:44;15.00;59.60
3699;DHT22;1865;50.918;7.092;2022-10-03T21:17:43;15.00;59.30
3699;DHT22;1865;50.918;7.092;2022-10-03T21:20:16;14.90;59.80
3699;DHT22;1865;50.918;7.092;2022-10-03T21:22:46;14.90;59.70
3699;DHT22;1865;50.918;7.092;2022-10-03T21:25:32;15.00;59.40
3699;DHT22;1865;50.918;7.092;2022-10-03T21:27:59;14.90;59.70
3699;DHT22;1865;50.918;7.092;2022-10-03T21:33:29;14.90;59.50
3699;DHT22;1865;50.918;7.092;2022-10-03T21:36:10;14.80;59.90
3699;DHT22;1865;50.918;7.092;2022-10-03T21:38:37;14.70;59.70
3699;DHT22;1865;50.918;7.092;2022-10-03T21:41:25;14.60;60.70
3699;DHT22;1865;50.918;7.092;2022-10-03T21:44:26;14.60;59.90
3699;DHT22;1865;50.918;7.092;2022-10-03T21:47:04;14.50;60.10
3699;DHT22;1865;50.918;7.092;2022-10-03T21:52:38;14.40;60.30
3699;DHT22;1865;50.918;7.092;2022-10-03T22:00:55;14.40;60.70
3699;DHT22;1865;50.918;7.092;2022-10-03T22:03:32;14.40;60.00
3699;DHT22;1865;50.918;7.092;2022-10-03T22:06:31;14.50;59.70
3699;DHT22;1865;50.918;7.092;2022-10-03T22:09:09;14.40;59.50
3699;DHT22;1865;50.918;7.092;2022-10-03T22:11:43;14.40;59.80
3699;DHT22;1865;50.918;7.092;2022-10-03T22:20:11;14.30;59.70
3699;DHT22;1865;50.918;7.092;2022-10-03T22:28:44;14.30;59.80
3699;DHT22;1865;50.918;7.092;2022-10-03T22:36:52;14.40;59.60
3699;DHT22;1865;50.918;7.092;2022-10-03T22:39:19;14.30;59.50
3699;DHT22;1865;50.918;7.092;2022-10-03T22:41:49;14.30;59.90
3699;DHT22;1865;50.918;7.092;2022-10-03T22:44:17;14.30;59.80
3699;DHT22;1865;50.918;7.092;2022-10-03T22:46:47;14.30;59.50
3699;DHT22;1865;50.918;7.092;2022-10-03T22:49:17;14.20;59.50
3699;DHT22;1865;50.918;7.092;2022-10-03T22:51:45;14.10;59.50
3699;DHT22;1865;50.918;7.092;2022-10-03T22:54:14;14.10;59.80
3699;DHT22;1865;50.918;7.092;2022-10-03T22:59:18;14.10;59.30
3699;DHT22;1865;50.918;7.092;2022-10-03T23:01:48;14.00;59.20
3699;DHT22;1865;50.918;7.092;2022-10-03T23:04:30;13.90;59.30
3699;DHT22;1865;50.918;7.092;2022-10-03T23:07:26;13.90;59.60
3699;DHT22;1865;50.918;7.092;2022-10-03T23:10:05;13.90;59.60
3699;DHT22;1865;50.918;7.092;2022-10-03T23:12:46;13.80;59.60
3699;DHT22;1865;50.918;7.092;2022-10-03T23:15:15;13.70;59.70
3699;DHT22;1865;50.918;7.092;2022-10-03T23:18:07;13.70;59.40
3699;DHT22;1865;50.918;7.092;2022-10-03T23:21:09;13.60;59.70
3699;DHT22;1865;50.918;7.092;2022-10-03T23:26:53;13.60;59.70
3699;DHT22;1865;50.918;7.092;2022-10-03T23:29:22;13.50;59.70
3699;DHT22;1865;50.918;7.092;2022-10-03T23:45:10;13.40;60.10
3699;DHT22;1865;50.918;7.092;2022-10-03T23:48:01;13.50;59.60
3699;DHT22;1865;50.918;7.092;2022-10-03T23:53:02;13.40;59.90
3699;DHT22;1865;50.918;7.092;2022-10-03T23:55:32;13.30;60.30
3699;DHT22;1865;50.918;7.092;2022-10-03T23:58:00;13.40;60.50
